createdAt,value
2023-04-10T00:00:24.266Z,8.45
2023-04-10T00:02:51.490Z,8.40
2023-04-10T00:05:18.824Z,8.43
2023-04-10T00:07:45.494Z,8.35
2023-04-10T00:10:12.019Z,8.34
2023-04-10T00:12:38.592Z,8.45
2023-04-10T00:15:05.825Z,8.33
2023-04-10T00:17:32.497Z,8.41
2023-04-10T00:19:59.470Z,8.40
2023-04-10T00:22:26.586Z,8.35
2023-04-10T00:24:53.549Z,8.28
2023-04-10T00:27:21.192Z,8.23
2023-04-10T00:29:49.246Z,8.24
2023-04-10T00:32:17.172Z,8.28
2023-04-10T00:34:45.663Z,8.20
2023-04-10T00:37:12.291Z,8.22
2023-04-10T00:39:38.815Z,8.24
2023-04-10T00:42:09.242Z,8.21
2023-04-10T00:44:38.699Z,8.14
2023-04-10T00:47:06.079Z,8.09
2023-04-10T00:49:34.077Z,8.07
2023-04-10T00:52:01.854Z,7.98
2023-04-10T00:54:28.612Z,7.89
2023-04-10T00:56:57.337Z,7.94
2023-04-10T00:59:24.826Z,7.95
2023-04-10T01:01:51.899Z,7.94
2023-04-10T01:04:18.702Z,8.01
2023-04-10T01:07:01.737Z,8.01
2023-04-10T01:09:59.810Z,7.89
2023-04-10T01:12:41.637Z,7.86
2023-04-10T01:15:18.645Z,7.79
2023-04-10T01:17:57.409Z,7.70
2023-04-10T01:20:27.716Z,7.67
2023-04-10T01:23:12.593Z,7.67
2023-04-10T01:25:41.421Z,7.63
2023-04-10T01:28:21.512Z,7.70
2023-04-10T01:30:51.119Z,7.78
2023-04-10T01:33:27.850Z,7.76
2023-04-10T01:35:58.180Z,7.67
2023-04-10T01:38:28.709Z,7.60
2023-04-10T01:40:58.213Z,7.50
2023-04-10T01:43:27.101Z,7.55
2023-04-10T01:45:54.462Z,7.69
2023-04-10T01:48:21.805Z,7.68
2023-04-10T01:50:49.145Z,7.60
2023-04-10T01:53:16.531Z,7.40
2023-04-10T01:55:44.201Z,7.38
2023-04-10T01:58:13.077Z,7.38
2023-04-10T02:00:42.409Z,7.49
2023-04-10T02:03:10.900Z,7.49
2023-04-10T02:06:02.655Z,7.47
2023-04-10T02:08:41.229Z,7.43
2023-04-10T02:11:15.833Z,7.42
2023-04-10T02:13:42.833Z,7.37
2023-04-10T02:16:10.142Z,7.37
2023-04-10T02:18:38.783Z,7.22
2023-04-10T02:21:07.343Z,7.16
2023-04-10T02:23:34.288Z,7.32
2023-04-10T02:26:06.768Z,7.36
2023-04-10T02:28:33.322Z,7.36
2023-04-10T02:31:00.248Z,7.25
2023-04-10T02:33:26.812Z,7.23
2023-04-10T02:35:53.788Z,7.35
2023-04-10T02:38:20.955Z,7.30
2023-04-10T02:40:50.499Z,7.31
2023-04-10T02:43:17.290Z,7.30
2023-04-10T02:45:43.924Z,7.23
2023-04-10T02:48:13.385Z,7.23
2023-04-10T02:50:40.126Z,7.12
2023-04-10T02:53:06.709Z,6.93
2023-04-10T02:55:33.481Z,7.10
2023-04-10T02:58:00.058Z,7.08
2023-04-10T03:00:26.751Z,7.06
2023-04-10T03:02:53.750Z,7.10
2023-04-10T03:05:20.643Z,7.01
2023-04-10T03:07:47.159Z,6.90
2023-04-10T03:10:13.974Z,7.01
2023-04-10T03:12:40.745Z,6.99
2023-04-10T03:15:07.872Z,6.90
2023-04-10T03:17:35.757Z,7.03
2023-04-10T03:20:02.409Z,7.01
2023-04-10T03:22:31.934Z,7.00
2023-04-10T03:24:58.691Z,7.02
2023-04-10T03:27:25.722Z,6.99
2023-04-10T03:29:52.550Z,7.01
2023-04-10T03:32:19.288Z,7.03
2023-04-10T03:34:46.060Z,6.93
2023-04-10T03:37:12.628Z,6.97
2023-04-10T03:39:39.384Z,6.88
2023-04-10T03:42:06.063Z,6.84
2023-04-10T03:44:32.706Z,6.77
2023-04-10T03:46:59.321Z,6.76
2023-04-10T03:49:26.195Z,6.81
2023-04-10T03:51:52.764Z,6.79
2023-04-10T03:54:19.300Z,6.74
2023-04-10T03:56:46.049Z,6.80
2023-04-10T03:59:12.564Z,6.78
2023-04-10T04:01:39.473Z,6.74
2023-04-10T04:04:08.118Z,6.73
2023-04-10T04:06:35.240Z,6.71
2023-04-10T04:09:03.399Z,6.70
2023-04-10T04:11:30.247Z,6.56
2023-04-10T04:13:57.218Z,6.71
2023-04-10T04:16:23.791Z,6.81
2023-04-10T04:18:50.287Z,6.79
2023-04-10T04:21:16.956Z,6.72
2023-04-10T04:23:43.887Z,6.81
2023-04-10T04:26:10.692Z,6.80
2023-04-10T04:28:38.776Z,6.81
2023-04-10T04:31:05.625Z,6.79
2023-04-10T04:33:33.235Z,6.78
2023-04-10T04:35:59.828Z,6.71
2023-04-10T04:38:26.381Z,6.74
2023-04-10T04:40:53.170Z,6.56
2023-04-10T04:43:20.155Z,6.50
2023-04-10T04:45:46.961Z,6.53
2023-04-10T04:48:13.663Z,6.59
2023-04-10T04:50:41.952Z,6.55
2023-04-10T04:53:09.740Z,6.50
2023-04-10T04:55:36.422Z,6.44
2023-04-10T04:58:07.282Z,6.45
2023-04-10T05:00:33.869Z,6.56
2023-04-10T05:03:00.612Z,6.53
2023-04-10T05:05:27.442Z,6.57
2023-04-10T05:07:54.028Z,6.59
2023-04-10T05:10:20.870Z,6.68
2023-04-10T05:12:47.436Z,6.89
2023-04-10T05:15:15.517Z,6.89
2023-04-10T05:17:42.181Z,6.87
2023-04-10T05:20:12.509Z,6.95
2023-04-10T05:22:39.186Z,7.05
2023-04-10T05:25:06.808Z,7.11
2023-04-10T05:27:33.516Z,7.26
2023-04-10T05:30:00.328Z,7.34
2023-04-10T05:32:27.043Z,7.47
2023-04-10T05:34:53.692Z,7.60
2023-04-10T05:37:20.486Z,7.80
2023-04-10T05:39:47.302Z,7.89
2023-04-10T05:42:14.537Z,8.37
2023-04-10T05:44:41.234Z,8.35
2023-04-10T05:47:08.072Z,8.47
2023-04-10T05:49:34.631Z,8.65
2023-04-10T05:52:01.187Z,8.90
2023-04-10T05:54:27.882Z,8.97
2023-04-10T05:56:55.058Z,9.06
2023-04-10T05:59:21.935Z,9.10
2023-04-10T06:01:49.104Z,9.10
2023-04-10T06:04:15.993Z,9.11
2023-04-10T06:06:43.054Z,9.13
2023-04-10T06:09:09.855Z,9.31
2023-04-10T06:11:36.722Z,9.45
2023-04-10T06:14:03.478Z,9.51
2023-04-10T06:16:31.222Z,9.66
2023-04-10T06:18:58.491Z,9.86
2023-04-10T06:21:26.146Z,9.70
2023-04-10T06:23:54.336Z,10.47
2023-04-10T06:26:21.199Z,10.69
2023-04-10T06:28:48.435Z,11.15
2023-04-10T06:31:15.626Z,11.29
2023-04-10T06:33:42.220Z,11.30
2023-04-10T06:36:09.169Z,11.86
2023-04-10T06:38:37.853Z,11.53
2023-04-10T06:41:07.472Z,12.16
2023-04-10T06:43:36.043Z,12.11
2023-04-10T06:46:06.276Z,12.40
2023-04-10T06:48:34.961Z,12.89
2023-04-10T06:51:01.721Z,12.67
2023-04-10T06:53:28.548Z,12.93
2023-04-10T06:55:55.357Z,12.91
2023-04-10T06:58:22.812Z,13.33
2023-04-10T07:00:49.864Z,13.29
2023-04-10T07:03:17.358Z,13.75
2023-04-10T07:05:44.119Z,14.38
2023-04-10T07:08:10.995Z,14.93
2023-04-10T07:10:38.885Z,15.41
2023-04-10T07:13:05.426Z,16.25
2023-04-10T07:15:33.254Z,16.04
2023-04-10T07:18:01.262Z,15.18
2023-04-10T07:20:28.316Z,15.97
2023-04-10T07:22:55.484Z,16.02
2023-04-10T07:25:23.287Z,16.14
2023-04-10T07:27:49.837Z,16.46
2023-04-10T07:30:16.589Z,17.20
2023-04-10T07:32:47.232Z,17.42
2023-04-10T07:35:14.340Z,17.28
2023-04-10T07:37:41.955Z,17.62
2023-04-10T07:40:09.490Z,16.90
2023-04-10T07:42:36.431Z,17.76
2023-04-10T07:45:03.959Z,18.75
2023-04-10T07:47:30.687Z,17.76
2023-04-10T07:49:57.663Z,19.00
2023-04-10T07:52:24.806Z,18.40
2023-04-10T07:54:51.610Z,19.77
2023-04-10T07:57:18.295Z,18.19
2023-04-10T07:59:45.139Z,19.46
2023-04-10T08:02:12.433Z,18.54
2023-04-10T08:04:39.456Z,19.64
2023-04-10T08:07:06.902Z,18.87
2023-04-10T08:09:35.687Z,19.51
2023-04-10T08:12:02.942Z,20.05
2023-04-10T08:14:29.679Z,20.11
2023-04-10T08:16:56.571Z,20.90
2023-04-10T08:19:23.223Z,20.62
2023-04-10T08:21:50.306Z,20.70
2023-04-10T08:24:20.047Z,20.82
2023-04-10T08:26:47.074Z,17.83
2023-04-10T08:29:14.042Z,20.27
2023-04-10T08:31:41.075Z,19.68
2023-04-10T08:34:07.815Z,20.66
2023-04-10T08:36:34.852Z,21.19
2023-04-10T08:39:01.484Z,21.32
2023-04-10T08:41:29.089Z,21.32
2023-04-10T08:43:57.810Z,22.23
2023-04-10T08:46:26.490Z,22.43
2023-04-10T08:49:04.172Z,21.90
2023-04-10T08:51:45.820Z,20.64
2023-04-10T08:54:26.457Z,23.46
2023-04-10T08:56:54.627Z,18.20
2023-04-10T08:59:22.886Z,21.67
2023-04-10T09:01:50.081Z,22.33
2023-04-10T09:04:18.315Z,21.78
2023-04-10T09:06:45.159Z,23.05
2023-04-10T09:09:12.077Z,22.96
2023-04-10T09:11:55.719Z,22.98
2023-04-10T09:14:29.758Z,21.79
2023-04-10T09:17:16.318Z,22.04
2023-04-10T09:19:48.064Z,24.59
2023-04-10T09:22:16.172Z,23.25
2023-04-10T09:24:44.828Z,23.46
2023-04-10T09:27:26.873Z,23.96
2023-04-10T09:29:53.544Z,22.89
2023-04-10T09:32:43.298Z,23.41
2023-04-10T09:35:12.877Z,22.25
2023-04-10T09:37:41.091Z,22.95
2023-04-10T09:40:26.072Z,23.28
2023-04-10T09:42:54.225Z,22.55
2023-04-10T09:45:23.053Z,22.43
2023-04-10T09:48:07.860Z,21.30
2023-04-10T09:50:39.252Z,21.06
2023-04-10T09:53:13.633Z,21.48
2023-04-10T09:55:42.091Z,20.53
2023-04-10T09:58:10.213Z,20.83
2023-04-10T10:00:47.335Z,21.44
2023-04-10T10:03:16.026Z,22.69
2023-04-10T10:05:45.804Z,21.02
2023-04-10T10:08:14.818Z,21.35
2023-04-10T10:10:53.739Z,22.48
2023-04-10T10:13:39.448Z,21.92
2023-04-10T10:16:16.605Z,22.64
2023-04-10T10:19:21.734Z,22.41
2023-04-10T10:21:52.102Z,22.65
2023-04-10T10:24:22.233Z,24.19
2023-04-10T10:26:51.608Z,23.16
2023-04-10T10:29:19.080Z,23.78
2023-04-10T10:31:47.096Z,23.40
2023-04-10T10:34:19.689Z,23.73
2023-04-10T10:36:46.341Z,23.66
2023-04-10T10:39:16.722Z,25.10
2023-04-10T10:41:59.145Z,23.94
2023-04-10T10:44:52.372Z,24.76
2023-04-10T10:47:30.963Z,25.14
2023-04-10T10:50:01.173Z,24.03
2023-04-10T10:52:46.924Z,25.50
2023-04-10T10:55:26.031Z,26.29
2023-04-10T10:57:54.328Z,25.52
2023-04-10T11:01:02.771Z,26.78
2023-04-10T11:03:30.094Z,27.38
2023-04-10T11:05:59.086Z,25.65
2023-04-10T11:08:50.578Z,26.77
2023-04-10T11:11:21.135Z,25.22
2023-04-10T11:13:56.485Z,25.23
2023-04-10T11:16:41.182Z,25.41
2023-04-10T11:22:09.230Z,25.29
2023-04-10T11:24:57.749Z,25.33
2023-04-10T11:27:50.272Z,25.27
2023-04-10T11:30:30.301Z,24.18
2023-04-10T11:32:57.698Z,25.40
2023-04-10T11:35:25.868Z,23.56
2023-04-10T11:37:54.113Z,23.65
2023-04-10T11:40:21.533Z,23.72
2023-04-10T11:42:48.809Z,24.86
2023-04-10T11:45:28.130Z,24.85
2023-04-10T11:47:55.158Z,24.44
2023-04-10T11:50:22.383Z,25.44
2023-04-10T11:52:53.438Z,27.18
2023-04-10T11:55:40.408Z,24.47
2023-04-10T11:58:29.234Z,23.12
2023-04-10T12:01:01.776Z,23.28
2023-04-10T12:03:42.201Z,22.46
2023-04-10T12:06:14.239Z,22.97
2023-04-10T12:08:43.256Z,22.98
2023-04-10T12:11:11.145Z,23.39
2023-04-10T12:13:39.581Z,23.41
2023-04-10T12:16:11.472Z,23.21
2023-04-10T12:18:38.566Z,23.34
2023-04-10T12:21:07.604Z,22.51
2023-04-10T12:23:38.717Z,22.09
2023-04-10T12:26:14.144Z,22.29
2023-04-10T12:28:49.070Z,22.66
2023-04-10T12:31:15.940Z,22.08
2023-04-10T12:33:46.971Z,22.01
2023-04-10T12:36:24.754Z,22.12
2023-04-10T12:38:53.131Z,21.98
2023-04-10T12:41:29.544Z,21.54
2023-04-10T12:44:11.020Z,22.54
2023-04-10T12:46:39.205Z,21.44
2023-04-10T12:49:13.291Z,22.59
2023-04-10T12:51:51.635Z,21.78
2023-04-10T12:54:33.499Z,21.93
2023-04-10T12:57:01.643Z,22.46
2023-04-10T12:59:30.246Z,23.19
2023-04-10T13:01:57.397Z,22.29
2023-04-10T13:04:24.472Z,21.53
2023-04-10T13:06:55.553Z,22.14
2023-04-10T13:09:23.213Z,21.49
2023-04-10T13:11:52.353Z,21.76
2023-04-10T13:14:19.671Z,23.11
2023-04-10T13:16:47.275Z,22.44
2023-04-10T13:19:15.154Z,21.52
2023-04-10T13:21:41.733Z,22.33
2023-04-10T13:24:08.292Z,22.19
2023-04-10T13:26:36.148Z,21.91
2023-04-10T13:29:02.810Z,21.99
2023-04-10T13:31:33.903Z,23.09
2023-04-10T13:34:01.021Z,22.99
2023-04-10T13:36:27.845Z,22.36
2023-04-10T13:38:54.833Z,22.21
2023-04-10T13:41:24.147Z,23.24
2023-04-10T13:43:51.040Z,22.37
2023-04-10T13:46:18.051Z,22.03
2023-04-10T13:48:45.468Z,22.37
2023-04-10T13:51:12.233Z,21.97
2023-04-10T13:53:38.830Z,23.10
2023-04-10T13:56:06.738Z,22.04
2023-04-10T13:58:34.444Z,22.77
2023-04-10T14:01:01.822Z,22.72
2023-04-10T14:03:28.890Z,22.69
2023-04-10T14:05:56.915Z,21.47
2023-04-10T14:08:23.859Z,21.73
2023-04-10T14:10:54.983Z,22.07
2023-04-10T14:13:21.726Z,22.58
2023-04-10T14:15:48.523Z,22.43
2023-04-10T14:18:18.609Z,23.11
2023-04-10T14:20:46.494Z,23.01
2023-04-10T14:23:18.321Z,22.99
2023-04-10T14:25:45.958Z,22.96
2023-04-10T14:28:18.214Z,23.38
2023-04-10T14:30:50.694Z,23.18
2023-04-10T14:33:20.097Z,23.00
2023-04-10T14:35:47.917Z,21.90
2023-04-10T14:38:16.851Z,21.50
2023-04-10T14:40:45.736Z,21.99
2023-04-10T14:43:12.360Z,22.55
2023-04-10T14:45:40.481Z,22.19
2023-04-10T14:48:07.655Z,21.91
2023-04-10T14:50:34.630Z,21.63
2023-04-10T14:53:01.331Z,21.54
2023-04-10T14:55:31.486Z,20.92
2023-04-10T14:57:59.300Z,21.69
2023-04-10T15:00:26.063Z,22.39
2023-04-10T15:02:59.552Z,22.42
2023-04-10T15:05:27.226Z,21.52
2023-04-10T15:07:55.156Z,21.30
2023-04-10T15:10:25.399Z,21.40
2023-04-10T15:12:51.961Z,21.63
2023-04-10T15:15:18.838Z,20.99
2023-04-10T15:17:45.709Z,21.47
2023-04-10T15:20:12.567Z,21.82
2023-04-10T15:22:40.447Z,20.69
2023-04-10T15:25:07.642Z,21.64
2023-04-10T15:27:36.314Z,21.79
2023-04-10T15:30:04.582Z,21.46
2023-04-10T15:32:31.120Z,20.85
2023-04-10T15:34:57.751Z,21.44
2023-04-10T15:37:25.674Z,21.46
2023-04-10T15:39:52.340Z,21.40
2023-04-10T15:42:19.203Z,20.62
2023-04-10T15:44:48.936Z,21.36
2023-04-10T15:47:16.233Z,20.62
2023-04-10T15:49:43.052Z,20.51
2023-04-10T15:52:11.657Z,20.98
2023-04-10T15:54:43.579Z,21.16
2023-04-10T15:57:11.322Z,21.10
2023-04-10T15:59:37.900Z,21.56
2023-04-10T16:02:04.736Z,21.83
2023-04-10T16:04:31.823Z,21.54
2023-04-10T16:06:58.858Z,21.47
2023-04-10T16:09:26.629Z,21.39
2023-04-10T16:11:54.329Z,21.16
2023-04-10T16:14:21.101Z,21.13
2023-04-10T16:16:48.243Z,21.65
2023-04-10T16:19:14.838Z,21.77
2023-04-10T16:21:42.732Z,21.23
2023-04-10T16:24:09.587Z,20.72
2023-04-10T16:26:36.164Z,20.83
2023-04-10T16:29:03.047Z,20.71
2023-04-10T16:31:29.777Z,20.34
2023-04-10T16:33:57.703Z,20.36
2023-04-10T16:36:24.364Z,20.49
2023-04-10T16:38:51.027Z,20.42
2023-04-10T16:41:18.803Z,20.50
2023-04-10T16:43:46.803Z,20.46
2023-04-10T16:46:13.505Z,20.09
2023-04-10T16:48:40.178Z,20.28
2023-04-10T16:51:07.197Z,20.31
2023-04-10T16:53:36.021Z,20.54
2023-04-10T16:56:04.859Z,19.76
2023-04-10T16:58:34.066Z,19.80
2023-04-10T17:01:00.773Z,20.23
2023-04-10T17:03:27.675Z,19.54
2023-04-10T17:05:54.354Z,20.01
2023-04-10T17:08:21.126Z,20.42
2023-04-10T17:10:47.694Z,20.17
2023-04-10T17:13:14.400Z,20.26
2023-04-10T17:15:40.974Z,20.08
2023-04-10T17:18:07.617Z,19.82
2023-04-10T17:20:40.834Z,19.76
2023-04-10T17:23:13.868Z,19.91
2023-04-10T17:25:42.190Z,20.15
2023-04-10T17:28:09.177Z,20.28
2023-04-10T17:30:36.241Z,19.84
2023-04-10T17:33:03.900Z,19.74
2023-04-10T17:35:31.048Z,20.07
2023-04-10T17:37:57.652Z,20.26
2023-04-10T17:40:24.992Z,20.11
2023-04-10T17:42:51.644Z,20.18
2023-04-10T17:45:18.538Z,19.92
2023-04-10T17:47:46.305Z,19.69
2023-04-10T17:50:12.949Z,19.83
2023-04-10T17:52:39.758Z,19.55
2023-04-10T17:55:06.895Z,19.80
2023-04-10T17:57:34.115Z,19.69
2023-04-10T18:00:07.156Z,19.18
2023-04-10T18:02:34.049Z,18.63
2023-04-10T18:05:03.514Z,18.83
2023-04-10T18:07:30.525Z,19.28
2023-04-10T18:09:57.442Z,19.49
2023-04-10T18:12:25.370Z,19.32
2023-04-10T18:14:52.047Z,19.01
2023-04-10T18:17:22.004Z,18.90
2023-04-10T18:19:51.145Z,19.35
2023-04-10T18:22:21.097Z,18.73
2023-04-10T18:24:49.282Z,19.12
2023-04-10T18:27:16.913Z,19.04
2023-04-10T18:29:43.693Z,18.48
2023-04-10T18:32:11.022Z,18.54
2023-04-10T18:34:37.982Z,18.75
2023-04-10T18:37:05.540Z,18.35
2023-04-10T18:39:37.902Z,18.86
2023-04-10T18:42:10.825Z,18.79
2023-04-10T18:44:37.853Z,18.38
2023-04-10T18:47:07.722Z,18.71
2023-04-10T18:49:35.097Z,18.88
2023-04-10T18:52:04.039Z,18.89
2023-04-10T18:54:31.809Z,18.65
2023-04-10T18:56:58.940Z,18.95
2023-04-10T18:59:27.037Z,18.62
2023-04-10T19:01:53.849Z,18.50
2023-04-10T19:04:21.012Z,18.78
2023-04-10T19:06:47.645Z,18.74
2023-04-10T19:09:14.997Z,18.63
2023-04-10T19:11:44.202Z,18.72
2023-04-10T19:14:10.844Z,18.32
2023-04-10T19:16:37.589Z,18.35
2023-04-10T19:19:05.724Z,18.16
2023-04-10T19:21:39.411Z,18.46
2023-04-10T19:24:06.552Z,18.53
2023-04-10T19:26:33.278Z,18.50
2023-04-10T19:29:00.908Z,18.11
2023-04-10T19:31:29.907Z,18.39
2023-04-10T19:33:56.548Z,18.24
2023-04-10T19:36:23.210Z,18.17
2023-04-10T19:38:51.216Z,18.26
2023-04-10T19:43:59.970Z,18.71
2023-04-10T19:46:26.994Z,18.33
2023-04-10T19:48:54.620Z,18.20
2023-04-10T19:51:23.025Z,18.23
2023-04-10T19:53:51.400Z,18.03
2023-04-10T19:56:18.613Z,18.11
2023-04-10T19:58:47.144Z,18.18
2023-04-10T20:01:14.427Z,18.05
2023-04-10T20:03:41.077Z,18.42
2023-04-10T20:06:08.093Z,18.24
2023-04-10T20:08:39.958Z,18.06
2023-04-10T20:11:07.680Z,18.45
2023-04-10T20:13:34.865Z,18.10
2023-04-10T20:16:03.831Z,18.03
2023-04-10T20:18:32.153Z,18.42
2023-04-10T20:20:59.084Z,18.23
2023-04-10T20:23:25.831Z,17.79
2023-04-10T20:25:52.507Z,17.63
2023-04-10T20:28:19.799Z,17.37
2023-04-10T20:30:49.127Z,17.23
2023-04-10T20:33:16.917Z,17.04
2023-04-10T20:35:44.206Z,16.82
2023-04-10T20:38:11.096Z,16.95
2023-04-10T20:40:38.965Z,17.04
2023-04-10T20:43:10.965Z,17.25
2023-04-10T20:45:41.253Z,17.19
2023-04-10T20:48:08.753Z,17.39
2023-04-10T20:50:36.982Z,17.67
2023-04-10T20:53:03.802Z,17.69
2023-04-10T20:55:33.842Z,17.85
2023-04-10T20:58:00.541Z,17.52
2023-04-10T21:00:27.196Z,17.68
2023-04-10T21:02:54.065Z,17.61
2023-04-10T21:05:20.893Z,17.47
2023-04-10T21:07:47.931Z,17.75
2023-04-10T21:10:16.217Z,17.58
2023-04-10T21:12:43.184Z,17.21
2023-04-10T21:15:10.647Z,17.52
2023-04-10T21:17:37.440Z,17.29
2023-04-10T21:20:04.270Z,17.54
2023-04-10T21:22:33.108Z,17.52
2023-04-10T21:24:59.761Z,17.46
2023-04-10T21:27:26.507Z,17.59
2023-04-10T21:29:53.006Z,17.58
2023-04-10T21:32:20.476Z,17.72
2023-04-10T21:34:47.577Z,17.61
2023-04-10T21:37:14.281Z,17.32
2023-04-10T21:39:43.391Z,17.40
2023-04-10T21:42:10.056Z,17.23
2023-04-10T21:44:37.077Z,17.40
2023-04-10T21:47:04.855Z,17.02
2023-04-10T21:49:32.212Z,17.52
2023-04-10T21:51:59.312Z,17.43
2023-04-10T21:54:29.522Z,17.24
2023-04-10T21:56:56.035Z,17.24
2023-04-10T21:59:23.355Z,17.43
2023-04-10T22:01:49.880Z,17.29
2023-04-10T22:04:16.736Z,17.30
2023-04-10T22:06:45.158Z,17.12
2023-04-10T22:09:11.858Z,17.43
2023-04-10T22:11:39.497Z,17.08
2023-04-10T22:14:15.804Z,17.34
2023-04-10T22:16:44.137Z,17.34
2023-04-10T22:19:11.785Z,17.03
2023-04-10T22:21:39.870Z,16.67
2023-04-10T22:24:07.128Z,16.42
2023-04-10T22:26:34.975Z,16.38
2023-04-10T22:29:04.500Z,16.23
2023-04-10T22:31:31.404Z,15.91
2023-04-10T22:33:58.020Z,16.20
2023-04-10T22:36:24.806Z,15.78
2023-04-10T22:38:51.282Z,15.46
2023-04-10T22:41:17.838Z,15.08
2023-04-10T22:43:46.539Z,14.94
2023-04-10T22:46:13.156Z,14.55
2023-04-10T22:48:40.522Z,14.45
2023-04-10T22:51:16.524Z,14.33
2023-04-10T22:53:43.091Z,13.98
2023-04-10T22:56:11.413Z,13.91
2023-04-10T22:58:39.618Z,13.86
2023-04-10T23:01:08.336Z,13.59
2023-04-10T23:03:35.999Z,13.86
2023-04-10T23:06:02.779Z,13.73
2023-04-10T23:08:29.382Z,13.47
2023-04-10T23:10:56.333Z,13.77
2023-04-10T23:13:23.453Z,13.49
2023-04-10T23:15:51.216Z,13.51
2023-04-10T23:18:19.482Z,13.64
2023-04-10T23:20:47.686Z,13.64
2023-04-10T23:23:16.467Z,13.66
2023-04-10T23:25:43.463Z,13.94
2023-04-10T23:28:10.041Z,13.80
2023-04-10T23:30:36.861Z,13.76
2023-04-10T23:33:03.456Z,13.80
2023-04-10T23:35:30.355Z,13.69
2023-04-10T23:37:57.882Z,13.75
2023-04-10T23:40:24.867Z,13.78
2023-04-10T23:42:51.508Z,13.81
2023-04-10T23:45:18.515Z,13.75
2023-04-10T23:47:45.180Z,13.83
2023-04-10T23:50:11.868Z,13.86
2023-04-10T23:52:38.712Z,13.89
2023-04-10T23:55:06.095Z,13.84
2023-04-10T23:57:32.654Z,13.76
